createdAt,value
2017-04-10T00:00:52.415Z,14.73
2017-04-10T00:01:52.444Z,14.73
2017-04-10T00:02:52.461Z,14.68
2017-04-10T00:03:52.479Z,14.7
2017-04-10T00:04:52.188Z,14.63
2017-04-10T00:05:52.517Z,14.65
2017-04-10T00:06:52.542Z,14.62
2017-04-10T00:07:52.559Z,14.66
2017-04-10T00:08:52.583Z,14.62
2017-04-10T00:09:52.602Z,14.47
2017-04-10T00:10:52.619Z,14.44
2017-04-10T00:11:52.638Z,14.48
2017-04-10T00:12:52.655Z,14.51
2017-04-10T00:13:52.674Z,14.51
2017-04-10T00:14:52.691Z,14.5
2017-04-10T00:15:52.714Z,14.54
2017-04-10T00:16:52.735Z,14.41
2017-04-10T00:17:52.751Z,14.41
2017-04-10T00:18:52.456Z,14.47
2017-04-10T00:19:52.794Z,14.45
2017-04-10T00:20:52.810Z,14.4
2017-04-10T00:21:52.833Z,14.35
2017-04-10T00:22:52.848Z,14.37
2017-04-10T00:23:52.872Z,14.33
2017-04-10T00:24:52.888Z,14.32
2017-04-10T00:25:52.905Z,14.32
2017-04-10T00:26:52.619Z,14.36
2017-04-10T00:27:52.952Z,14.26
2017-04-10T00:28:52.969Z,14.28
2017-04-10T00:29:52.987Z,14.28
2017-04-10T00:30:53.008Z,14.26
2017-04-10T00:31:53.027Z,14.25
2017-04-10T00:32:53.054Z,14.22
2017-04-10T00:33:53.070Z,14.2
2017-04-10T00:34:53.089Z,14.22
2017-04-10T00:35:53.104Z,14.14
2017-04-10T00:36:53.120Z,14.12
2017-04-10T00:37:53.146Z,14.14
2017-04-10T00:38:53.164Z,14.11
2017-04-10T00:39:53.182Z,14.17
2017-04-10T00:40:53.201Z,14.14
2017-04-10T00:41:53.216Z,14.12
2017-04-10T00:42:53.254Z,14.2
2017-04-10T00:43:53.255Z,14.05
2017-04-10T00:44:53.274Z,14.17
2017-04-10T00:45:53.294Z,14.14
2017-04-10T00:46:53.315Z,14.1
2017-04-10T00:47:53.333Z,14.07
2017-04-10T00:48:53.349Z,14.07
2017-04-10T00:49:53.368Z,14.05
2017-04-10T00:50:53.075Z,14.03
2017-04-10T00:51:53.101Z,14.07
2017-04-10T00:52:53.429Z,14.04
2017-04-10T00:53:53.455Z,14
2017-04-10T00:54:53.470Z,14.04
2017-04-10T00:55:53.491Z,13.92
2017-04-10T00:56:53.504Z,13.93
2017-04-10T00:57:53.532Z,13.95
2017-04-10T00:58:53.557Z,13.95
2017-04-10T00:59:53.560Z,13.95
2017-04-10T01:00:53.576Z,13.93
2017-04-10T01:01:53.600Z,13.89
2017-04-10T01:02:53.630Z,13.92
2017-04-10T01:03:53.643Z,13.85
2017-04-10T01:04:53.668Z,13.86
2017-04-10T01:05:53.679Z,13.93
2017-04-10T01:06:53.696Z,13.83
2017-04-10T01:07:53.712Z,13.89
2017-04-10T01:08:53.737Z,13.83
2017-04-10T01:09:53.797Z,13.79
2017-04-10T01:10:53.777Z,13.81
2017-04-10T01:11:53.801Z,13.77
2017-04-10T01:12:53.815Z,13.85
2017-04-10T01:13:53.833Z,13.78
2017-04-10T01:14:53.856Z,13.78
2017-04-10T01:15:53.870Z,13.81
2017-04-10T01:16:53.889Z,13.71
2017-04-10T01:17:53.907Z,13.78
2017-04-10T01:18:53.926Z,13.78
2017-04-10T01:19:53.945Z,13.72
2017-04-10T01:20:53.969Z,13.65
2017-04-10T01:21:54.017Z,13.67
2017-04-10T01:22:53.701Z,13.68
2017-04-10T01:23:53.708Z,13.65
2017-04-10T01:24:54.034Z,13.6
2017-04-10T01:25:54.054Z,13.6
2017-04-10T01:26:54.076Z,13.59
2017-04-10T01:27:54.092Z,13.63
2017-04-10T01:28:54.110Z,13.59
2017-04-10T01:29:54.130Z,13.62
2017-04-10T01:30:54.144Z,13.56
2017-04-10T01:31:54.163Z,13.56
2017-04-10T01:32:54.188Z,13.57
2017-04-10T01:33:54.207Z,13.53
2017-04-10T01:34:54.221Z,13.56
2017-04-10T01:35:54.242Z,13.52
2017-04-10T01:36:54.267Z,13.47
2017-04-10T01:37:54.282Z,13.46
2017-04-10T01:38:54.301Z,13.31
2017-04-10T01:39:54.318Z,13.47
2017-04-10T01:40:54.337Z,13.44
2017-04-10T01:41:54.350Z,13.39
2017-04-10T01:42:54.374Z,13.37
2017-04-10T01:43:54.395Z,13.35
2017-04-10T01:44:54.449Z,13.3
2017-04-10T01:45:54.426Z,13.31
2017-04-10T01:46:54.454Z,13.37
2017-04-10T01:47:54.466Z,13.35
2017-04-10T01:48:54.481Z,13.31
2017-04-10T01:49:54.505Z,13.27
2017-04-10T01:50:54.528Z,13.22
2017-04-10T01:51:54.547Z,13.33
2017-04-10T01:52:54.559Z,13.19
2017-04-10T01:53:54.571Z,13.31
2017-04-10T01:54:54.593Z,13.31
2017-04-10T01:55:54.299Z,13.2
2017-04-10T01:56:54.631Z,13.19
2017-04-10T01:57:54.339Z,13.19
2017-04-10T01:58:54.354Z,13.16
2017-04-10T01:59:54.681Z,13.18
2017-04-10T02:00:54.709Z,13.16
2017-04-10T02:01:54.721Z,13.19
2017-04-10T02:02:54.740Z,13.15
2017-04-10T02:03:54.773Z,13.16
2017-04-10T02:04:54.781Z,13.04
2017-04-10T02:05:54.796Z,13.04
2017-04-10T02:06:54.813Z,13.15
2017-04-10T02:07:54.833Z,13.05
2017-04-10T02:08:54.847Z,13.11
2017-04-10T02:09:54.869Z,13.09
2017-04-10T02:10:54.889Z,13.15
2017-04-10T02:11:54.910Z,13.11
2017-04-10T02:12:54.922Z,13.01
2017-04-10T02:13:54.951Z,13.05
2017-04-10T02:14:54.964Z,13.11
2017-04-10T02:15:54.982Z,13.01
2017-04-10T02:16:55.027Z,13.04
2017-04-10T02:17:55.020Z,13.09
2017-04-10T02:18:55.038Z,12.98
2017-04-10T02:19:54.739Z,12.98
2017-04-10T02:20:55.072Z,13.04
2017-04-10T02:21:55.091Z,12.97
2017-04-10T02:22:55.119Z,13.01
2017-04-10T02:23:55.128Z,13
2017-04-10T02:24:55.141Z,13.05
2017-04-10T02:25:55.166Z,13.03
2017-04-10T02:26:55.181Z,12.98
2017-04-10T02:27:55.203Z,12.95
2017-04-10T02:28:55.214Z,13
2017-04-10T02:29:55.241Z,12.93
2017-04-10T02:30:55.257Z,12.91
2017-04-10T02:31:55.275Z,12.9
2017-04-10T02:32:55.296Z,12.9
2017-04-10T02:33:55.308Z,12.94
2017-04-10T02:34:55.329Z,12.98
2017-04-10T02:35:55.349Z,12.94
2017-04-10T02:36:55.362Z,12.93
2017-04-10T02:37:55.381Z,12.95
2017-04-10T02:38:55.393Z,12.85
2017-04-10T02:39:55.418Z,12.85
2017-04-10T02:40:55.435Z,12.85
2017-04-10T02:41:55.453Z,12.82
2017-04-10T02:42:55.474Z,12.85
2017-04-10T02:43:55.546Z,12.86
2017-04-10T02:44:55.504Z,12.8
2017-04-10T02:45:55.527Z,12.79
2017-04-10T02:46:55.545Z,12.79
2017-04-10T02:47:55.562Z,12.79
2017-04-10T02:48:55.589Z,12.78
2017-04-10T02:49:55.596Z,12.73
2017-04-10T02:50:55.614Z,12.72
2017-04-10T02:51:55.634Z,12.72
2017-04-10T02:52:55.648Z,12.72
2017-04-10T02:53:55.673Z,12.68
2017-04-10T02:54:55.694Z,12.67
2017-04-10T02:55:55.701Z,12.65
2017-04-10T02:56:55.731Z,12.68
2017-04-10T02:57:55.745Z,12.64
2017-04-10T02:58:55.760Z,12.76
2017-04-10T02:59:55.776Z,12.65
2017-04-10T03:00:55.791Z,12.65
2017-04-10T03:01:55.808Z,12.65
2017-04-10T03:02:55.830Z,12.61
2017-04-10T03:03:55.853Z,12.61
2017-04-10T03:04:55.867Z,12.65
2017-04-10T03:05:55.886Z,12.65
2017-04-10T03:06:55.594Z,12.64
2017-04-10T03:07:55.933Z,12.65
2017-04-10T03:08:55.934Z,12.7
2017-04-10T03:09:55.646Z,12.67
2017-04-10T03:10:55.973Z,12.61
2017-04-10T03:11:56.000Z,12.64
2017-04-10T03:12:56.074Z,12.6
2017-04-10T03:13:56.082Z,12.53
2017-04-10T03:14:56.092Z,12.57
2017-04-10T03:15:56.101Z,12.54
2017-04-10T03:16:56.100Z,12.61
2017-04-10T03:17:56.109Z,12.61
2017-04-10T03:18:56.123Z,12.5
2017-04-10T03:19:56.129Z,12.5
2017-04-10T03:20:56.272Z,12.49
2017-04-10T03:21:56.270Z,12.49
2017-04-10T03:22:56.279Z,12.46
2017-04-10T03:23:56.312Z,12.49
2017-04-10T03:24:56.377Z,12.47
2017-04-10T03:25:56.336Z,12.47
2017-04-10T03:26:56.345Z,12.45
2017-04-10T03:27:56.353Z,12.45
2017-04-10T03:28:56.362Z,12.43
2017-04-10T03:29:56.393Z,12.55
2017-04-10T03:30:56.393Z,12.43
2017-04-10T03:31:56.402Z,12.47
2017-04-10T03:32:56.411Z,12.47
2017-04-10T03:33:56.418Z,12.43
2017-04-10T03:34:56.429Z,12.45
2017-04-10T03:35:56.427Z,12.49
2017-04-10T03:36:56.439Z,12.46
2017-04-10T03:37:56.452Z,12.4
2017-04-10T03:38:56.470Z,12.45
2017-04-10T03:39:56.212Z,12.37
2017-04-10T03:40:56.506Z,12.39
2017-04-10T03:41:56.526Z,12.42
2017-04-10T03:42:56.238Z,12.32
2017-04-10T03:43:56.553Z,12.43
2017-04-10T03:44:56.576Z,12.43
2017-04-10T03:45:56.588Z,12.42
2017-04-10T03:46:56.614Z,12.42
2017-04-10T03:47:56.628Z,12.39
2017-04-10T03:48:56.645Z,12.39
2017-04-10T03:49:56.666Z,12.43
2017-04-10T03:50:56.678Z,12.42
2017-04-10T03:51:56.705Z,12.43
2017-04-10T03:52:56.815Z,12.39
2017-04-10T03:53:56.730Z,12.37
2017-04-10T03:54:56.784Z,12.37
2017-04-10T03:55:56.452Z,12.29
2017-04-10T03:56:56.792Z,12.39
2017-04-10T03:57:56.802Z,12.35
2017-04-10T03:58:56.822Z,12.31
2017-04-10T03:59:56.848Z,12.4
2017-04-10T04:00:56.907Z,12.25
2017-04-10T04:01:56.869Z,12.24
2017-04-10T04:02:56.885Z,12.35
2017-04-10T04:03:56.596Z,12.25
2017-04-10T04:04:56.924Z,12.29
2017-04-10T04:05:56.944Z,12.31
2017-04-10T04:06:56.964Z,12.24
2017-04-10T04:07:56.976Z,12.31
2017-04-10T04:08:56.995Z,12.31
2017-04-10T04:09:57.015Z,12.22
2017-04-10T04:10:56.767Z,12.25
2017-04-10T04:11:57.195Z,12.28
2017-04-10T04:12:57.067Z,12.31
2017-04-10T04:13:57.082Z,12.25
2017-04-10T04:14:57.125Z,12.31
2017-04-10T04:15:57.208Z,12.25
2017-04-10T04:16:57.140Z,12.27
2017-04-10T04:17:57.155Z,12.29
2017-04-10T04:18:57.163Z,12.28
2017-04-10T04:19:57.184Z,12.22
2017-04-10T04:20:57.260Z,12.21
2017-04-10T04:21:57.350Z,12.27
2017-04-10T04:22:57.240Z,12.21
2017-04-10T04:23:57.254Z,12.22
2017-04-10T04:24:57.280Z,12.25
2017-04-10T04:25:57.296Z,12.2
2017-04-10T04:26:57.315Z,12.27
2017-04-10T04:27:57.324Z,12.27
2017-04-10T04:28:57.346Z,12.24
2017-04-10T04:29:57.053Z,12.21
2017-04-10T04:30:57.376Z,12.21
2017-04-10T04:31:57.400Z,12.22
2017-04-10T04:32:57.417Z,12.21
2017-04-10T04:33:57.430Z,12.27
2017-04-10T04:34:57.459Z,12.29
2017-04-10T04:35:57.472Z,12.22
2017-04-10T04:36:57.486Z,12.24
2017-04-10T04:37:57.497Z,12.17
2017-04-10T04:38:57.513Z,12.2
2017-04-10T04:39:57.529Z,12.22
2017-04-10T04:40:57.545Z,12.22
2017-04-10T04:41:57.567Z,12.22
2017-04-10T04:42:57.620Z,12.18
2017-04-10T04:43:57.739Z,12.22
2017-04-10T04:44:57.617Z,12.21
2017-04-10T04:45:57.642Z,12.21
2017-04-10T04:46:57.770Z,12.18
2017-04-10T04:47:57.670Z,12.12
2017-04-10T04:48:57.687Z,12.13
2017-04-10T04:49:57.707Z,12.13
2017-04-10T04:50:57.722Z,12.15
2017-04-10T04:51:57.789Z,12.21
2017-04-10T04:52:57.766Z,12.13
2017-04-10T04:53:57.899Z,12.21
2017-04-10T04:54:57.820Z,12.17
2017-04-10T04:55:57.809Z,12.09
2017-04-10T04:56:57.946Z,12.15
2017-04-10T04:57:57.846Z,12.13
2017-04-10T04:58:57.958Z,12.13
2017-04-10T04:59:57.883Z,12.18
2017-04-10T05:00:57.894Z,12.12
2017-04-10T05:01:57.915Z,12.13
2017-04-10T05:02:57.934Z,12.22
2017-04-10T05:03:57.943Z,12.13
2017-04-10T05:04:57.979Z,12.13
2017-04-10T05:05:57.988Z,12.12
2017-04-10T05:06:57.997Z,12.15
2017-04-10T05:07:58.017Z,12.21
2017-04-10T05:08:58.031Z,12.2
2017-04-10T05:09:58.049Z,12.17
2017-04-10T05:10:58.073Z,12.09
2017-04-10T05:11:58.215Z,12.15
2017-04-10T05:12:58.106Z,12.22
2017-04-10T05:13:58.325Z,12.21
2017-04-10T05:14:58.138Z,12.2
2017-04-10T05:15:58.154Z,12.22
2017-04-10T05:16:58.174Z,12.25
2017-04-10T05:17:57.877Z,12.17
2017-04-10T05:18:58.216Z,12.18
2017-04-10T05:19:57.918Z,12.22
2017-04-10T05:20:58.285Z,12.21
2017-04-10T05:21:58.255Z,12.2
2017-04-10T05:22:58.276Z,12.27
2017-04-10T05:23:58.293Z,12.21
2017-04-10T05:24:58.310Z,12.25
2017-04-10T05:25:58.335Z,12.29
2017-04-10T05:26:58.345Z,12.22
2017-04-10T05:27:58.359Z,12.27
2017-04-10T05:28:58.374Z,12.25
2017-04-10T05:29:58.398Z,12.27
2017-04-10T05:30:58.411Z,12.29
2017-04-10T05:31:58.433Z,12.24
2017-04-10T05:32:58.444Z,12.24
2017-04-10T05:33:58.462Z,12.25
2017-04-10T05:34:58.484Z,12.25
2017-04-10T05:35:58.498Z,12.29
2017-04-10T05:36:58.522Z,12.27
2017-04-10T05:37:58.533Z,12.29
2017-04-10T05:38:58.551Z,12.21
2017-04-10T05:39:58.570Z,12.37
2017-04-10T05:40:58.586Z,12.25
2017-04-10T05:41:58.602Z,12.31
2017-04-10T05:42:58.629Z,12.39
2017-04-10T05:43:58.638Z,12.28
2017-04-10T05:44:58.654Z,12.28
2017-04-10T05:45:58.674Z,12.37
2017-04-10T05:46:58.690Z,12.36
2017-04-10T05:47:58.710Z,12.4
2017-04-10T05:48:58.732Z,12.4
2017-04-10T05:49:58.741Z,12.35
2017-04-10T05:50:58.757Z,12.45
2017-04-10T05:51:58.788Z,12.39
2017-04-10T05:52:58.487Z,12.39
2017-04-10T05:53:58.814Z,12.42
2017-04-10T05:54:58.831Z,12.45
2017-04-10T05:55:58.851Z,12.45
2017-04-10T05:56:58.868Z,12.46
2017-04-10T05:57:58.885Z,12.45
2017-04-10T05:58:58.898Z,12.49
2017-04-10T05:59:58.913Z,12.45
2017-04-10T06:00:58.934Z,12.53
2017-04-10T06:01:58.947Z,12.46
2017-04-10T06:02:58.966Z,12.49
2017-04-10T06:03:58.989Z,12.53
2017-04-10T06:04:59.002Z,12.65
2017-04-10T06:05:59.016Z,12.65
2017-04-10T06:06:59.042Z,12.64
2017-04-10T06:07:59.057Z,12.67
2017-04-10T06:08:59.067Z,12.64
2017-04-10T06:09:59.088Z,12.65
2017-04-10T06:10:59.117Z,12.76
2017-04-10T06:11:59.138Z,12.7
2017-04-10T06:12:59.150Z,12.73
2017-04-10T06:13:59.158Z,12.75
2017-04-10T06:14:59.172Z,12.8
2017-04-10T06:15:59.292Z,12.79
2017-04-10T06:16:58.897Z,12.82
2017-04-10T06:17:58.917Z,12.83
2017-04-10T06:18:59.246Z,12.86
2017-04-10T06:19:59.271Z,12.97
2017-04-10T06:20:59.275Z,12.9
2017-04-10T06:21:58.983Z,12.87
2017-04-10T06:22:59.317Z,13
2017-04-10T06:23:59.328Z,12.98
2017-04-10T06:24:59.349Z,13.04
2017-04-10T06:25:59.066Z,13.03
2017-04-10T06:26:59.390Z,13.08
2017-04-10T06:27:59.400Z,13.04
2017-04-10T06:28:59.415Z,13.09
2017-04-10T06:29:59.434Z,13.12
2017-04-10T06:30:59.453Z,13.08
2017-04-10T06:31:59.533Z,13.15
2017-04-10T06:32:59.511Z,13.19
2017-04-10T06:33:59.548Z,13.22
2017-04-10T06:34:59.516Z,13.18
2017-04-10T06:35:59.539Z,13.28
2017-04-10T06:36:59.559Z,13.35
2017-04-10T06:37:59.574Z,13.33
2017-04-10T06:38:59.590Z,13.44
2017-04-10T06:39:59.613Z,13.35
2017-04-10T06:40:59.632Z,13.47
2017-04-10T06:41:59.641Z,13.57
2017-04-10T06:42:59.661Z,13.67
2017-04-10T06:43:59.674Z,13.67
2017-04-10T06:44:59.697Z,13.75
2017-04-10T06:45:59.718Z,13.65
2017-04-10T06:46:59.119Z,13.78
2017-04-10T06:47:59.746Z,13.79
2017-04-10T06:48:59.770Z,13.78
2017-04-10T06:49:59.786Z,13.81
2017-04-10T06:50:59.804Z,13.89
2017-04-10T06:51:59.830Z,13.93
2017-04-10T06:52:59.837Z,13.92
2017-04-10T06:53:59.855Z,14.04
2017-04-10T06:54:59.881Z,14.08
2017-04-10T06:55:59.938Z,14.08
2017-04-10T06:56:59.905Z,14.08
2017-04-10T06:57:59.927Z,14.15
2017-04-10T06:58:59.946Z,14.18
2017-04-10T06:59:59.957Z,14.23
2017-04-10T07:00:59.980Z,14.23
2017-04-10T07:01:59.995Z,14.32
2017-04-10T07:02:59.743Z,14.36
2017-04-10T07:04:00.031Z,14.51
2017-04-10T07:05:00.052Z,14.41
2017-04-10T07:06:00.073Z,14.51
2017-04-10T07:07:00.094Z,14.59
2017-04-10T07:08:00.111Z,14.51
2017-04-10T07:09:00.123Z,14.63
2017-04-10T07:10:00.142Z,14.73
2017-04-10T07:11:00.161Z,14.78
2017-04-10T07:12:00.183Z,14.82
2017-04-10T07:13:00.196Z,14.85
2017-04-10T07:14:00.216Z,14.85
2017-04-10T07:15:00.234Z,14.94
2017-04-10T07:16:00.258Z,15.02
2017-04-10T07:17:00.270Z,14.96
2017-04-10T07:18:00.287Z,15.07
2017-04-10T07:18:59.999Z,15.11
2017-04-10T07:20:00.448Z,15.1
2017-04-10T07:21:00.348Z,15.15
2017-04-10T07:22:00.368Z,15.18
2017-04-10T07:23:00.378Z,15.19
2017-04-10T07:24:00.407Z,15.31
2017-04-10T07:25:00.101Z,15.39
2017-04-10T07:26:00.436Z,15.37
2017-04-10T07:27:00.452Z,15.39
2017-04-10T07:28:00.469Z,15.43
2017-04-10T07:29:00.484Z,15.49
2017-04-10T07:30:00.509Z,15.51
2017-04-10T07:31:00.528Z,15.64
2017-04-10T07:32:00.547Z,15.65
2017-04-10T07:33:00.246Z,15.64
2017-04-10T07:34:00.269Z,15.67
2017-04-10T07:35:00.623Z,15.73
2017-04-10T07:36:00.623Z,15.77
2017-04-10T07:37:00.634Z,15.92
2017-04-10T07:38:00.678Z,15.86
2017-04-10T07:39:00.689Z,15.9
2017-04-10T07:40:00.693Z,15.95
2017-04-10T07:41:00.707Z,15.94
2017-04-10T07:42:00.733Z,15.97
2017-04-10T07:43:00.746Z,16.12
2017-04-10T07:44:00.770Z,16.13
2017-04-10T07:45:00.785Z,16.15
2017-04-10T07:46:00.797Z,16.2
2017-04-10T07:47:00.817Z,16.26
2017-04-10T07:48:00.531Z,16.31
2017-04-10T07:49:00.546Z,16.35
2017-04-10T07:50:00.873Z,16.36
2017-04-10T07:51:00.587Z,16.47
2017-04-10T07:52:00.603Z,16.58
2017-04-10T07:53:00.620Z,16.61
2017-04-10T07:54:00.953Z,16.65
2017-04-10T07:55:00.973Z,16.6
2017-04-10T07:56:00.682Z,16.66
2017-04-10T07:57:00.700Z,16.83
2017-04-10T07:58:00.714Z,16.84
2017-04-10T07:59:00.733Z,16.83
2017-04-10T08:00:01.107Z,16.86
2017-04-10T08:01:01.080Z,16.93
2017-04-10T08:02:01.101Z,16.96
2017-04-10T08:03:01.123Z,16.91
2017-04-10T08:04:01.147Z,16.9
2017-04-10T08:05:01.163Z,17.02
2017-04-10T08:06:01.187Z,17.05
2017-04-10T08:07:01.201Z,17.05
2017-04-10T08:08:01.216Z,16.99
2017-04-10T08:09:01.233Z,17.01
2017-04-10T08:10:01.258Z,16.94
2017-04-10T08:11:01.278Z,17.08
2017-04-10T08:12:01.297Z,16.96
2017-04-10T08:13:01.311Z,17.04
2017-04-10T08:14:01.339Z,17.04
2017-04-10T08:15:01.351Z,17.14
2017-04-10T08:16:01.374Z,17.14
2017-04-10T08:17:01.390Z,17.09
2017-04-10T08:18:01.415Z,17.11
2017-04-10T08:19:01.428Z,17.15
2017-04-10T08:20:01.458Z,17.16
2017-04-10T08:21:01.475Z,17.2
2017-04-10T08:22:01.176Z,17.24
2017-04-10T08:23:01.509Z,17.29
2017-04-10T08:24:01.527Z,17.33
2017-04-10T08:25:01.777Z,17.3
2017-04-10T08:26:01.789Z,17.39
2017-04-10T08:27:01.792Z,17.48
2017-04-10T08:28:01.702Z,17.48
2017-04-10T08:29:01.737Z,17.48
2017-04-10T08:30:01.855Z,17.51
2017-04-10T08:31:01.848Z,17.52
2017-04-10T08:32:01.869Z,17.64
2017-04-10T08:33:01.852Z,17.7
2017-04-10T08:34:01.921Z,17.57
2017-04-10T08:35:01.746Z,17.67
2017-04-10T08:36:01.765Z,17.64
2017-04-10T08:37:01.790Z,17.64
2017-04-10T08:38:01.803Z,17.7
2017-04-10T08:39:01.828Z,17.83
2017-04-10T08:40:01.849Z,17.79
2017-04-10T08:41:01.865Z,17.79
2017-04-10T08:42:01.887Z,17.87
2017-04-10T08:43:01.910Z,17.94
2017-04-10T08:44:01.611Z,18.05
2017-04-10T08:45:01.941Z,17.98
2017-04-10T08:46:01.965Z,18.05
2017-04-10T08:47:01.987Z,18.18
2017-04-10T08:48:02.008Z,18.22
2017-04-10T08:49:02.027Z,18.22
2017-04-10T08:50:02.053Z,18.29
2017-04-10T08:51:02.063Z,18.34
2017-04-10T08:52:02.086Z,18.37
2017-04-10T08:53:02.122Z,18.38
2017-04-10T08:54:02.122Z,18.43
2017-04-10T08:55:02.151Z,18.47
2017-04-10T08:56:02.165Z,18.55
2017-04-10T08:57:01.871Z,18.59
2017-04-10T08:58:02.203Z,18.6
2017-04-10T08:59:02.224Z,18.63
2017-04-10T09:00:02.241Z,18.73
2017-04-10T09:01:02.264Z,18.75
2017-04-10T09:02:02.290Z,18.78
2017-04-10T09:03:02.298Z,18.74
2017-04-10T09:04:02.325Z,18.84
2017-04-10T09:05:02.346Z,18.89
2017-04-10T09:06:02.373Z,18.92
2017-04-10T09:07:02.390Z,18.9
2017-04-10T09:08:02.409Z,18.93
2017-04-10T09:09:02.436Z,18.95
2017-04-10T09:10:02.449Z,19
2017-04-10T09:11:02.468Z,19.08
2017-04-10T09:12:02.487Z,19.02
2017-04-10T09:13:02.516Z,19.11
2017-04-10T09:14:02.527Z,19.22
2017-04-10T09:15:02.550Z,19.19
2017-04-10T09:16:02.569Z,19.15
2017-04-10T09:17:02.635Z,19.22
2017-04-10T09:18:02.672Z,19.26
2017-04-10T09:19:02.652Z,19.29
2017-04-10T09:20:02.662Z,19.26
2017-04-10T09:21:02.790Z,19.44
2017-04-10T09:22:02.807Z,19.41
2017-04-10T09:23:02.817Z,19.47
2017-04-10T09:24:02.848Z,19.49
2017-04-10T09:25:02.857Z,19.52
2017-04-10T09:26:02.854Z,19.55
2017-04-10T09:27:02.865Z,19.59
2017-04-10T09:28:02.873Z,19.63
2017-04-10T09:29:02.923Z,19.63
2017-04-10T09:30:02.631Z,19.62
2017-04-10T09:31:02.931Z,19.69
2017-04-10T09:32:02.938Z,19.71
2017-04-10T09:33:02.946Z,19.74
2017-04-10T09:34:02.961Z,19.71
2017-04-10T09:35:02.972Z,19.82
2017-04-10T09:36:02.989Z,19.85
2017-04-10T09:37:03.014Z,19.88
2017-04-10T09:38:03.031Z,19.96
2017-04-10T09:39:02.857Z,19.99
2017-04-10T09:40:02.858Z,20.04
2017-04-10T09:41:03.094Z,20.11
2017-04-10T09:42:03.123Z,20.14
2017-04-10T09:43:02.916Z,20.16
2017-04-10T09:44:03.160Z,20.25
2017-04-10T09:45:03.182Z,20.31
2017-04-10T09:46:02.934Z,20.25
2017-04-10T09:47:02.941Z,20.34
2017-04-10T09:48:03.249Z,20.39
2017-04-10T09:49:02.961Z,20.48
2017-04-10T09:50:02.995Z,20.52
2017-04-10T09:51:03.314Z,20.48
2017-04-10T09:52:03.024Z,20.63
2017-04-10T09:53:03.355Z,20.62
2017-04-10T09:54:03.389Z,20.78
2017-04-10T09:55:03.397Z,20.87
2017-04-10T09:56:03.426Z,20.93
2017-04-10T09:57:03.439Z,20.97
2017-04-10T09:58:03.465Z,21.03
2017-04-10T09:59:03.486Z,21.07
2017-04-10T10:00:03.507Z,21.21
2017-04-10T10:01:03.525Z,21.32
2017-04-10T10:02:03.569Z,21.24
2017-04-10T10:03:03.577Z,21.25
2017-04-10T10:04:03.294Z,21.37
2017-04-10T10:05:03.613Z,21.4
2017-04-10T10:06:03.056Z,21.4
2017-04-10T10:07:03.344Z,21.51
2017-04-10T10:08:03.368Z,21.45
2017-04-10T10:09:03.080Z,21.51
2017-04-10T10:10:03.117Z,21.6
2017-04-10T10:11:03.123Z,21.61
2017-04-10T10:12:03.772Z,21.6
2017-04-10T10:13:03.477Z,21.67
2017-04-10T10:14:03.814Z,21.73
2017-04-10T10:15:03.836Z,21.77
2017-04-10T10:16:03.867Z,21.88
2017-04-10T10:17:03.885Z,21.8
2017-04-10T10:18:03.904Z,21.91
2017-04-10T10:19:03.927Z,22
2017-04-10T10:20:03.635Z,22.02
2017-04-10T10:21:03.974Z,22
2017-04-10T10:22:03.996Z,22
2017-04-10T10:23:04.017Z,22.14
2017-04-10T10:24:04.035Z,22.25
2017-04-10T10:25:04.067Z,22.29
2017-04-10T10:26:04.091Z,22.26
2017-04-10T10:27:04.111Z,22.29
2017-04-10T10:28:04.130Z,22.32
2017-04-10T10:29:04.151Z,22.35
2017-04-10T10:30:04.176Z,22.48
2017-04-10T10:31:03.885Z,22.51
2017-04-10T10:32:03.921Z,22.6
2017-04-10T10:33:03.930Z,22.57
2017-04-10T10:34:04.269Z,22.53
2017-04-10T10:35:03.979Z,22.57
2017-04-10T10:36:04.314Z,22.65
2017-04-10T10:37:04.025Z,22.73
2017-04-10T10:38:04.049Z,22.81
2017-04-10T10:39:04.066Z,22.85
2017-04-10T10:40:04.090Z,22.88
2017-04-10T10:41:04.427Z,22.91
2017-04-10T10:42:04.137Z,22.98
2017-04-10T10:43:04.484Z,23.02
2017-04-10T10:44:04.613Z,22.94
2017-04-10T10:45:03.898Z,23.12
2017-04-10T10:46:04.631Z,23.18
2017-04-10T10:47:04.653Z,23.25
2017-04-10T10:48:04.280Z,23.28
2017-04-10T10:49:04.669Z,23.36
2017-04-10T10:50:04.018Z,23.32
2017-04-10T10:51:04.346Z,23.48
2017-04-10T10:52:04.697Z,23.51
2017-04-10T10:53:04.401Z,23.5
2017-04-10T10:54:04.565Z,23.63
2017-04-10T10:55:04.531Z,23.71
2017-04-10T10:56:04.467Z,23.83
2017-04-10T10:57:04.572Z,23.71
2017-04-10T10:58:04.901Z,23.78
2017-04-10T10:59:04.909Z,23.74
2017-04-10T11:00:04.882Z,23.91
2017-04-10T11:01:04.907Z,23.93
2017-04-10T11:02:04.687Z,23.91
2017-04-10T11:03:04.946Z,24.02
2017-04-10T11:04:04.781Z,24.01
2017-04-10T11:05:04.997Z,24.16
2017-04-10T11:06:05.022Z,24.2
2017-04-10T11:07:05.045Z,24.29
2017-04-10T11:08:04.875Z,24.28
2017-04-10T11:09:04.879Z,24.4
2017-04-10T11:10:04.887Z,24.43
2017-04-10T11:11:05.144Z,24.5
2017-04-10T11:12:05.168Z,24.55
2017-04-10T11:13:04.875Z,24.6
2017-04-10T11:14:04.924Z,24.57
2017-04-10T11:15:05.240Z,24.61
2017-04-10T11:16:05.272Z,24.68
2017-04-10T11:17:04.981Z,24.76
2017-04-10T11:18:05.317Z,24.76
2017-04-10T11:19:05.028Z,24.74
2017-04-10T11:20:05.363Z,24.88
2017-04-10T11:21:05.389Z,24.81
2017-04-10T11:22:05.423Z,24.89
2017-04-10T11:23:05.436Z,24.93
2017-04-10T11:24:05.473Z,24.89
2017-04-10T11:25:05.487Z,24.85
2017-04-10T11:26:05.511Z,24.93
2017-04-10T11:27:05.544Z,24.85
2017-04-10T11:28:05.569Z,24.88
2017-04-10T11:29:05.590Z,24.85
2017-04-10T11:30:05.303Z,24.92
2017-04-10T11:31:05.640Z,24.84
2017-04-10T11:32:05.352Z,24.85
2017-04-10T11:33:05.060Z,24.89
2017-04-10T11:34:05.407Z,24.77
2017-04-10T11:35:05.745Z,24.74
2017-04-10T11:36:05.770Z,24.76
2017-04-10T11:37:05.789Z,24.81
2017-04-10T11:38:05.539Z,24.74
2017-04-10T11:39:05.841Z,24.76
2017-04-10T11:40:05.868Z,24.74
2017-04-10T11:41:05.894Z,24.73
2017-04-10T11:42:05.306Z,24.77
2017-04-10T11:43:05.941Z,24.77
2017-04-10T11:44:05.972Z,24.76
2017-04-10T11:45:05.681Z,24.73
2017-04-10T11:46:06.026Z,24.8
2017-04-10T11:47:06.046Z,24.8
2017-04-10T11:48:06.185Z,24.86
2017-04-10T11:49:05.784Z,24.84
2017-04-10T11:50:06.144Z,24.84
2017-04-10T11:51:06.158Z,24.88
2017-04-10T11:52:05.862Z,24.95
2017-04-10T11:53:06.192Z,24.98
2017-04-10T11:54:06.236Z,24.96
2017-04-10T11:55:05.677Z,24.99
2017-04-10T11:56:06.282Z,25.01
2017-04-10T11:57:05.988Z,25.04
2017-04-10T11:58:06.324Z,25.06
2017-04-10T11:59:06.035Z,25.08
2017-04-10T12:00:06.374Z,25.07
2017-04-10T12:01:06.401Z,25.04
2017-04-10T12:02:06.430Z,25.01
2017-04-10T12:03:06.451Z,25.14
2017-04-10T12:04:06.495Z,25.1
2017-04-10T12:05:06.194Z,25.11
2017-04-10T12:06:06.217Z,25.17
2017-04-10T12:07:06.257Z,25.11
2017-04-10T12:08:06.280Z,25.08
2017-04-10T12:09:06.297Z,25.11
2017-04-10T12:10:06.629Z,25.16
2017-04-10T12:11:06.656Z,25.14
2017-04-10T12:12:06.058Z,25.14
2017-04-10T12:13:06.717Z,25.21
2017-04-10T12:14:06.741Z,25.18
2017-04-10T12:15:06.762Z,25.25
2017-04-10T12:16:06.795Z,25.26
2017-04-10T12:17:06.821Z,25.28
2017-04-10T12:18:06.839Z,25.36
2017-04-10T12:19:06.865Z,25.43
2017-04-10T12:20:06.891Z,25.43
2017-04-10T12:21:06.920Z,25.54
2017-04-10T12:22:06.946Z,25.6
2017-04-10T12:23:06.973Z,25.55
2017-04-10T12:24:06.686Z,25.66
2017-04-10T12:25:07.022Z,25.59
2017-04-10T12:26:07.091Z,25.58
2017-04-10T12:27:07.081Z,25.66
2017-04-10T12:28:07.108Z,25.59
2017-04-10T12:29:07.130Z,25.65
2017-04-10T12:30:06.840Z,25.6
2017-04-10T12:31:07.180Z,25.73
2017-04-10T12:32:06.894Z,25.65
2017-04-10T12:33:07.230Z,25.69
2017-04-10T12:34:07.258Z,25.65
2017-04-10T12:35:07.285Z,25.62
2017-04-10T12:36:07.440Z,25.59
2017-04-10T12:37:07.427Z,25.55
2017-04-10T12:38:07.447Z,25.54
2017-04-10T12:39:07.459Z,25.59
2017-04-10T12:40:07.467Z,25.5
2017-04-10T12:41:07.475Z,25.54
2017-04-10T12:42:07.484Z,25.58
2017-04-10T12:43:07.491Z,25.62
2017-04-10T12:44:07.629Z,25.6
2017-04-10T12:45:07.561Z,25.62
2017-04-10T12:46:07.572Z,25.58
2017-04-10T12:47:07.686Z,25.5
2017-04-10T12:48:07.721Z,25.55
2017-04-10T12:49:07.728Z,25.54
2017-04-10T12:50:07.736Z,25.55
2017-04-10T12:51:07.746Z,25.62
2017-04-10T12:52:07.745Z,25.48
2017-04-10T12:53:07.822Z,25.44
2017-04-10T12:54:07.474Z,25.47
2017-04-10T12:55:07.561Z,25.36
2017-04-10T12:56:07.837Z,25.4